Time;durP1;ratioP1;P1;durP2;ratioP2;P2;SDS_P1;SDS_P2;PMS_P1;PMS_P2;Temp;Humidity;BMP_temperature;BMP_pressure;BME280_temperature;BME280_humidity;BME280_pressure;Samples;Min_cycle;Max_cycle;Signal;HPM_P1;HPM_P2
2022/07/05 04:00:51;;;;;;;4.67;4.27;;;17.10;99.90;;;;;;5849014;23;20933;-67
2022/07/05 04:03:18;;;;;;;5.03;4.47;;;17.20;99.90;;;;;;4995154;28;20485;-67
2022/07/05 04:05:44;;;;;;;4.47;4.10;;;17.20;99.90;;;;;;4995075;28;20461;-68
2022/07/05 04:08:11;;;;;;;4.50;4.17;;;17.20;99.90;;;;;;4995094;28;20458;-68
2022/07/05 04:10:38;;;;;;;4.83;4.40;;;17.20;99.90;;;;;;4994917;28;20500;-66
2022/07/05 04:13:04;;;;;;;5.20;4.77;;;17.20;99.90;;;;;;4994613;28;20450;-67
2022/07/05 04:15:31;;;;;;;4.83;4.43;;;17.30;99.90;;;;;;4994839;28;20465;-66
2022/07/05 04:17:59;;;;;;;4.67;4.37;;;17.30;99.90;;;;;;4995580;28;20975;-67
2022/07/05 04:20:26;;;;;;;4.07;3.77;;;17.30;99.90;;;;;;4994764;28;20458;-67
2022/07/05 04:22:56;;;;;;;4.93;4.17;;;17.40;99.90;;;;;;4994513;28;20473;-67
2022/07/05 04:25:23;;;;;;;4.50;4.13;;;17.40;99.90;;;;;;4994690;28;20454;-67
2022/07/05 04:27:51;;;;;;;4.97;4.67;;;17.40;99.90;;;;;;4994705;28;20457;-67
2022/07/05 04:30:19;;;;;;;5.30;4.60;;;17.50;99.90;;;;;;4994427;28;20461;-66
2022/07/05 04:32:46;;;;;;;4.70;4.40;;;17.50;99.90;;;;;;4994709;28;20557;-67
2022/07/05 04:35:15;;;;;;;4.03;3.83;;;17.60;99.90;;;;;;4994775;28;20458;-67
2022/07/05 04:37:42;;;;;;;5.33;4.37;;;17.60;99.90;;;;;;4994541;28;20464;-68
2022/07/05 04:40:11;;;;;;;6.30;4.50;;;17.70;99.90;;;;;;4994965;28;20465;-68
2022/07/05 04:42:38;;;;;;;5.20;4.80;;;17.70;99.90;;;;;;4994230;28;20478;-66
2022/07/05 04:45:06;;;;;;;4.60;4.30;;;17.80;99.90;;;;;;4994813;28;20469;-66
2022/07/05 04:47:33;;;;;;;5.03;4.63;;;17.90;99.90;;;;;;4995064;28;20484;-67
2022/07/05 04:50:00;;;;;;;3.90;3.70;;;17.90;99.90;;;;;;4994642;28;20460;-66
2022/07/05 04:52:29;;;;;;;4.40;4.10;;;18.00;99.90;;;;;;4995473;28;20464;-67
2022/07/05 04:54:55;;;;;;;8.03;5.80;;;18.00;99.90;;;;;;4998725;28;20476;-66
2022/07/05 04:57:22;;;;;;;4.50;3.97;;;18.00;99.90;;;;;;4998892;28;20464;-67
2022/07/05 04:59:49;;;;;;;4.40;4.00;;;18.10;99.90;;;;;;4998846;28;20867;-67
2022/07/05 05:02:16;;;;;;;4.23;3.83;;;18.10;99.90;;;;;;4997975;28;20492;-67
2022/07/05 05:04:42;;;;;;;5.03;3.63;;;18.20;99.90;;;;;;4998290;28;20460;-66
2022/07/05 05:07:09;;;;;;;3.37;3.17;;;18.30;99.90;;;;;;4998426;28;20468;-67
2022/07/05 05:09:37;;;;;;;7.27;3.43;;;18.30;99.90;;;;;;4998393;28;20469;-66
2022/07/05 05:12:05;;;;;;;7.73;3.80;;;18.40;99.90;;;;;;4998129;28;20972;-66
2022/07/05 05:14:32;;;;;;;3.97;3.57;;;18.40;99.90;;;;;;4997946;28;20488;-66
2022/07/05 05:16:58;;;;;;;3.17;2.97;;;18.50;99.90;;;;;;4998221;28;20456;-66
2022/07/05 05:19:25;;;;;;;6.47;4.00;;;18.60;99.90;;;;;;4998225;28;20464;-67
2022/07/05 05:21:52;;;;;;;3.57;3.30;;;18.70;99.90;;;;;;4998020;28;20473;-67
2022/07/05 05:24:19;;;;;;;7.73;3.40;;;18.70;99.90;;;;;;4997934;28;20464;-67
2022/07/05 05:26:47;;;;;;;4.00;3.40;;;18.80;99.90;;;;;;4997906;28;20480;-68
2022/07/05 05:29:14;;;;;;;3.63;3.20;;;18.90;99.90;;;;;;4997993;28;20855;-67
2022/07/05 05:31:40;;;;;;;3.40;3.10;;;18.90;99.90;;;;;;4997779;28;20834;-67
2022/07/05 05:34:07;;;;;;;5.80;3.03;;;19.00;99.90;;;;;;4997851;28;20453;-67
2022/07/05 05:36:34;;;;;;;4.20;3.33;;;19.20;99.90;;;;;;4999105;28;20528;-66
2022/07/05 05:39:00;;;;;;;6.37;3.53;;;19.30;99.90;;;;;;4997937;28;20825;-66
2022/07/05 05:41:27;;;;;;;5.90;3.07;;;19.50;99.90;;;;;;4997801;28;20484;-67
2022/07/05 05:43:55;;;;;;;9.67;3.73;;;19.60;99.90;;;;;;4997957;28;20477;-67
2022/07/05 05:46:22;;;;;;;3.30;3.00;;;19.70;99.90;;;;;;4997864;28;20504;-67
2022/07/05 05:48:48;;;;;;;9.60;3.23;;;19.90;99.90;;;;;;4998392;28;20794;-66
2022/07/05 05:51:15;;;;;;;7.50;3.30;;;20.00;99.90;;;;;;4998274;28;20870;-67
2022/07/05 05:53:45;;;;;;;2.80;2.60;;;20.10;99.90;;;;;;4998213;28;20476;-67
2022/07/05 05:56:11;;;;;;;3.73;3.10;;;20.20;99.90;;;;;;4997890;28;20461;-67
2022/07/05 05:58:38;;;;;;;5.53;2.83;;;20.40;99.90;;;;;;4997988;28;20457;-67
2022/07/05 06:01:06;;;;;;;6.03;2.93;;;20.60;99.90;;;;;;4997047;28;20996;-67
2022/07/05 06:03:33;;;;;;;2.97;2.77;;;20.70;99.90;;;;;;4997356;28;20482;-67
2022/07/05 06:06:00;;;;;;;7.23;2.90;;;20.70;99.90;;;;;;4996971;28;20453;-67
2022/07/05 06:08:27;;;;;;;4.43;2.67;;;20.80;99.90;;;;;;4997274;28;20461;-67
2022/07/05 06:10:53;;;;;;;6.70;3.20;;;21.00;99.90;;;;;;4997153;28;20474;-66
2022/07/05 06:13:20;;;;;;;3.63;2.20;;;21.00;99.90;;;;;;4997896;28;20449;-67
2022/07/05 06:15:47;;;;;;;6.57;2.27;;;21.10;99.90;;;;;;4997215;28;20465;-66
2022/07/05 06:18:15;;;;;;;7.97;3.00;;;21.30;99.90;;;;;;4996913;28;20454;-67
2022/07/05 06:20:42;;;;;;;6.23;2.90;;;21.50;99.90;;;;;;4997064;28;20477;-66
2022/07/05 06:23:09;;;;;;;2.20;2.00;;;21.70;99.90;;;;;;4996734;28;20492;-67
2022/07/05 06:25:36;;;;;;;4.13;2.37;;;21.80;99.90;;;;;;4997163;28;20817;-67
2022/07/05 06:28:05;;;;;;;3.37;2.17;;;22.00;99.90;;;;;;4997087;28;20552;-68
2022/07/05 06:30:33;;;;;;;1.70;1.60;;;22.20;99.90;;;;;;4996845;28;20470;-66
2022/07/05 06:33:00;;;;;;;2.87;1.50;;;22.30;99.90;;;;;;4997153;28;20816;-67
2022/07/05 06:35:29;;;;;;;1.63;1.53;;;22.50;99.90;;;;;;4997463;28;20454;-67
2022/07/05 06:37:58;;;;;;;1.80;1.70;;;22.70;99.90;;;;;;4996390;28;20454;-68
2022/07/05 06:40:27;;;;;;;3.00;1.90;;;22.80;99.20;;;;;;4996720;28;20454;-67
2022/07/05 06:42:56;;;;;;;1.77;1.67;;;22.90;97.80;;;;;;4996484;28;20477;-67
2022/07/05 06:45:23;;;;;;;4.23;1.87;;;23.00;98.50;;;;;;4996237;28;20457;-67
2022/07/05 06:47:56;;;;;;;1.67;1.57;;;23.20;99.90;;;;;;4996331;28;20466;-67
2022/07/05 06:50:22;;;;;;;2.20;1.30;;;23.40;98.20;;;;;;4996330;28;20476;-67
2022/07/05 06:52:51;;;;;;;5.03;1.60;;;23.60;96.10;;;;;;4996033;28;20445;-67
2022/07/05 06:55:18;;;;;;;1.67;1.57;;;23.80;95.50;;;;;;4996137;28;20457;-67
2022/07/05 06:57:45;;;;;;;1.57;1.40;;;24.10;95.80;;;;;;4996200;28;20458;-67
2022/07/05 07:00:13;;;;;;;1.70;1.60;;;24.40;97.10;;;;;;4995994;28;20624;-66
2022/07/05 07:02:40;;;;;;;2.93;1.73;;;24.80;94.60;;;;;;4996484;28;20984;-67
2022/07/05 07:05:08;;;;;;;1.83;1.50;;;25.30;93.60;;;;;;4996073;28;20464;-67
2022/07/05 07:10:21;;;;;;;2.07;1.40;;;26.40;90.90;;;;;;4996339;28;20805;-66
2022/07/05 07:12:47;;;;;;;2.83;1.57;;;26.80;89.10;;;;;;4996049;28;20508;-67
2022/07/05 07:15:14;;;;;;;2.00;1.50;;;27.30;85.20;;;;;;4995741;28;20457;-67
2022/07/05 07:17:41;;;;;;;1.80;1.57;;;27.60;79.70;;;;;;4995400;28;20461;-67
2022/07/05 07:20:08;;;;;;;2.93;1.63;;;27.80;80.60;;;;;;4996063;28;20454;-67
2022/07/05 07:22:35;;;;;;;4.43;1.97;;;27.70;78.30;;;;;;4995651;28;20470;-66
2022/07/05 07:25:02;;;;;;;2.57;1.50;;;28.00;76.80;;;;;;4995755;28;20473;-67
2022/07/05 07:27:30;;;;;;;2.70;1.77;;;28.50;74.20;;;;;;4995516;28;21023;-67
2022/07/05 07:29:56;;;;;;;1.60;1.50;;;28.40;70.00;;;;;;4995941;28;20505;-67
2022/07/05 07:32:23;;;;;;;3.80;1.50;;;28.70;72.10;;;;;;4996017;28;20479;-67
2022/07/05 07:34:50;;;;;;;1.83;1.70;;;29.30;72.40;;;;;;4996057;28;20457;-67
2022/07/05 07:37:18;;;;;;;2.30;1.60;;;29.60;68.10;;;;;;4995757;28;20469;-66
2022/07/05 07:39:45;;;;;;;1.70;1.57;;;29.80;66.50;;;;;;4995266;28;20900;-67
2022/07/05 07:42:12;;;;;;;2.27;2.07;;;30.20;67.20;;;;;;4995762;28;20477;-67
2022/07/05 07:44:40;;;;;;;1.63;1.50;;;30.40;66.50;;;;;;4995314;28;20482;-66
2022/07/05 07:47:06;;;;;;;1.57;1.40;;;30.60;63.30;;;;;;4995677;28;20464;-67
2022/07/05 07:49:33;;;;;;;6.63;2.00;;;30.80;62.20;;;;;;4995658;28;20854;-67
2022/07/05 07:52:00;;;;;;;2.33;1.47;;;30.60;64.20;;;;;;4995473;28;20500;-67
2022/07/05 07:54:26;;;;;;;2.17;1.60;;;30.80;65.80;;;;;;4995703;28;20457;-67
2022/07/05 07:56:53;;;;;;;6.13;1.43;;;31.40;61.60;;;;;;4995645;28;20462;-68
2022/07/05 07:59:20;;;;;;;2.83;1.47;;;31.60;61.50;;;;;;4995332;28;20453;-68
2022/07/05 08:01:48;;;;;;;1.53;1.30;;;31.70;58.90;;;;;;4995081;28;20489;-68
2022/07/05 08:04:15;;;;;;;1.50;1.50;;;31.60;59.70;;;;;;4995392;28;20477;-68
2022/07/05 08:06:42;;;;;;;2.53;1.53;;;32.00;57.50;;;;;;4994973;28;20826;-68
2022/07/05 08:09:08;;;;;;;1.30;1.20;;;32.30;59.50;;;;;;4995392;28;20863;-67
2022/07/05 08:11:35;;;;;;;1.70;1.60;;;32.40;58.40;;;;;;4995308;28;20473;-67
2022/07/05 08:14:02;;;;;;;1.90;1.07;;;32.80;55.40;;;;;;4995228;28;20460;-67
2022/07/05 08:16:28;;;;;;;1.63;1.23;;;32.40;54.20;;;;;;4995822;28;20457;-67
2022/07/05 08:21:49;;;;;;;1.67;1.57;;;32.90;56.50;;;;;;4971803;28;20468;-68
2022/07/05 08:24:16;;;;;;;2.30;1.30;;;33.10;54.50;;;;;;4995245;28;20992;-68
2022/07/05 08:26:42;;;;;;;2.90;1.27;;;33.00;55.10;;;;;;4995368;28;20457;-68
2022/07/05 08:29:11;;;;;;;1.10;1.10;;;33.40;56.20;;;;;;4994538;28;20931;-67
2022/07/05 08:31:39;;;;;;;2.10;1.40;;;33.10;53.30;;;;;;4995145;28;20527;-68
2022/07/05 08:34:08;;;;;;;1.60;1.50;;;33.10;55.30;;;;;;4995315;28;20449;-67
2022/07/05 08:36:36;;;;;;;2.13;1.50;;;33.00;55.00;;;;;;4994950;28;20457;-67
2022/07/05 08:39:04;;;;;;;3.63;1.50;;;33.00;55.00;;;;;;4995200;28;20460;-67
2022/07/05 08:41:33;;;;;;;2.50;1.30;;;33.30;54.20;;;;;;4995074;28;20473;-69
2022/07/05 08:44:02;;;;;;;2.10;1.20;;;33.40;54.80;;;;;;4995212;28;20479;-67
2022/07/05 08:46:31;;;;;;;6.27;1.80;;;33.40;54.60;;;;;;4995058;28;20460;-67
2022/07/05 08:49:00;;;;;;;2.10;1.60;;;33.90;56.30;;;;;;4994988;28;20959;-67
2022/07/05 08:51:29;;;;;;;3.10;1.40;;;33.80;51.40;;;;;;4995355;28;20477;-67
2022/07/05 08:53:56;;;;;;;2.80;1.50;;;33.50;54.60;;;;;;4995084;28;20508;-68
2022/07/05 08:56:23;;;;;;;4.67;1.40;;;33.70;52.80;;;;;;4994804;28;20460;-67
2022/07/05 08:58:50;;;;;;;6.43;1.83;;;33.50;53.90;;;;;;4994583;28;20453;-68
2022/07/05 09:01:17;;;;;;;2.93;1.50;;;34.00;53.60;;;;;;4994686;28;20485;-67
2022/07/05 09:03:46;;;;;;;2.80;1.40;;;33.80;51.90;;;;;;4994792;28;20478;-68
2022/07/05 09:06:16;;;;;;;2.90;1.43;;;34.00;52.80;;;;;;4994876;28;20464;-67
2022/07/05 09:08:46;;;;;;;2.03;1.60;;;34.40;53.00;;;;;;4994661;28;20837;-68
2022/07/05 09:11:15;;;;;;;1.20;1.10;;;34.40;52.60;;;;;;4995190;28;20843;-67
2022/07/05 09:13:43;;;;;;;5.27;1.70;;;34.30;50.70;;;;;;4995232;28;20452;-68
2022/07/05 09:16:11;;;;;;;1.10;1.10;;;34.00;51.10;;;;;;4994842;28;20453;-67
2022/07/05 09:18:42;;;;;;;1.50;1.40;;;34.50;52.20;;;;;;4994743;28;20463;-67
2022/07/05 09:21:17;;;;;;;1.30;1.30;;;34.90;50.10;;;;;;4994568;28;20481;-66
2022/07/05 09:23:45;;;;;;;2.80;1.20;;;34.90;50.90;;;;;;4994036;28;21015;-67
2022/07/05 09:26:12;;;;;;;2.90;1.50;;;34.30;48.70;;;;;;4994586;28;20995;-67
2022/07/05 09:28:55;;;;;;;1.40;1.30;;;34.00;50.00;;;;;;4994425;28;20460;-67
2022/07/05 09:31:30;;;;;;;3.63;1.73;;;34.30;51.50;;;;;;4994400;28;20509;-66
2022/07/05 09:34:08;;;;;;;1.33;1.23;;;34.60;50.50;;;;;;4994519;28;20459;-67
2022/07/05 09:36:52;;;;;;;3.20;1.17;;;34.50;51.40;;;;;;4994299;28;20455;-67
2022/07/05 09:39:40;;;;;;;1.80;1.17;;;34.10;50.50;;;;;;4995071;28;20536;-67
2022/07/05 09:42:17;;;;;;;1.70;1.20;;;34.50;51.80;;;;;;4998104;28;20479;-67
2022/07/05 09:44:45;;;;;;;1.20;1.20;;;34.80;50.80;;;;;;4997872;28;20471;-67
2022/07/05 09:47:13;;;;;;;2.63;1.13;;;35.00;47.00;;;;;;4998026;28;20492;-67
2022/07/05 09:49:43;;;;;;;1.40;1.30;;;35.00;46.20;;;;;;4997830;28;20457;-67
2022/07/05 09:52:10;;;;;;;4.83;1.30;;;35.10;47.10;;;;;;4997640;28;20511;-67
2022/07/05 09:54:38;;;;;;;1.10;1.10;;;35.20;46.50;;;;;;4998040;28;20453;-67
2022/07/05 09:57:05;;;;;;;1.33;1.10;;;35.40;47.30;;;;;;4997731;28;20492;-68
2022/07/05 09:59:32;;;;;;;0.97;0.90;;;35.60;45.40;;;;;;4997671;28;20453;-68
2022/07/05 10:01:58;;;;;;;0.90;0.90;;;35.30;44.60;;;;;;4997572;28;20924;-67
2022/07/05 10:04:25;;;;;;;1.00;1.00;;;35.20;45.60;;;;;;4997576;28;20481;-67
2022/07/05 10:06:52;;;;;;;1.93;1.23;;;35.20;45.30;;;;;;4997551;28;20511;-67
2022/07/05 10:09:19;;;;;;;3.17;1.20;;;35.40;44.40;;;;;;4997754;28;20461;-67
2022/07/05 10:11:47;;;;;;;1.10;1.00;;;35.60;45.40;;;;;;4997325;28;20473;-67
2022/07/05 10:14:19;;;;;;;4.37;1.33;;;35.50;43.50;;;;;;4997628;28;20456;-67
2022/07/05 10:16:58;;;;;;;1.27;0.93;;;35.30;45.80;;;;;;4997201;28;20463;-68
2022/07/05 10:19:29;;;;;;;1.00;1.00;;;35.40;45.50;;;;;;4997511;28;20465;-67
2022/07/05 10:21:56;;;;;;;1.20;1.20;;;35.80;44.80;;;;;;4997617;28;20483;-68
2022/07/05 10:24:23;;;;;;;1.90;1.07;;;36.00;43.70;;;;;;4996921;28;20481;-67
2022/07/05 10:26:51;;;;;;;2.50;1.10;;;36.30;43.80;;;;;;4997025;28;20453;-67
2022/07/05 10:29:19;;;;;;;1.20;1.20;;;36.70;43.70;;;;;;4997177;28;20858;-67
2022/07/05 10:31:46;;;;;;;2.23;0.97;;;37.10;42.80;;;;;;4997508;28;20473;-67
2022/07/05 10:34:14;;;;;;;0.83;0.83;;;37.10;41.00;;;;;;4997142;28;20449;-66
2022/07/05 10:36:42;;;;;;;2.20;0.93;;;36.60;41.90;;;;;;4997031;28;20453;-67
2022/07/05 10:39:10;;;;;;;1.93;0.97;;;36.60;42.40;;;;;;4996509;28;20995;-66
2022/07/05 10:41:39;;;;;;;1.80;1.07;;;36.50;41.40;;;;;;4997233;28;20473;-68
2022/07/05 10:44:08;;;;;;;2.70;1.50;;;36.60;41.70;;;;;;4997055;28;20877;-67
2022/07/05 10:46:36;;;;;;;1.53;0.97;;;37.10;42.20;;;;;;4997051;28;20457;-67
2022/07/05 10:49:11;;;;;;;1.13;1.13;;;37.20;40.30;;;;;;4996932;28;20453;-67
2022/07/05 10:51:38;;;;;;;2.20;1.00;;;37.30;40.30;;;;;;4997516;28;20527;-68
2022/07/05 10:54:05;;;;;;;2.90;1.53;;;37.50;39.00;;;;;;4997058;28;20842;-68
2022/07/05 10:56:32;;;;;;;1.00;0.80;;;37.70;39.30;;;;;;4996828;28;20484;-68
2022/07/05 10:59:06;;;;;;;1.43;1.10;;;37.50;38.30;;;;;;4996668;28;20945;-68
2022/07/05 11:01:37;;;;;;;0.90;0.90;;;37.40;40.10;;;;;;4996921;28;20535;-67
2022/07/05 11:04:29;;;;;;;6.97;2.70;;;37.30;41.60;;;;;;4997640;28;20468;-67
2022/07/05 11:06:57;;;;;;;8.53;6.37;;;37.30;40.00;;;;;;4997405;28;20931;-67
2022/07/05 11:09:23;;;;;;;1.97;1.73;;;37.10;41.80;;;;;;4996656;28;20457;-67
2022/07/05 11:12:07;;;;;;;1.20;1.10;;;37.20;42.30;;;;;;4997076;28;20980;-67
2022/07/05 11:14:38;;;;;;;1.30;1.07;;;37.30;39.20;;;;;;4997745;28;20444;-67
2022/07/05 11:17:29;;;;;;;2.23;1.23;;;37.40;41.50;;;;;;4998957;28;20500;-67
2022/07/05 11:20:11;;;;;;;2.60;0.90;;;37.50;40.50;;;;;;4998399;28;20438;-68
2022/07/05 11:22:41;;;;;;;1.93;1.20;;;37.20;41.80;;;;;;4996931;28;21037;-67
2022/07/05 11:25:10;;;;;;;1.40;1.30;;;36.00;40.40;;;;;;4996261;28;20991;-67
2022/07/05 11:27:57;;;;;;;1.50;0.90;;;35.90;43.90;;;;;;4996468;28;20480;-67
2022/07/05 11:30:26;;;;;;;4.23;1.73;;;35.60;40.80;;;;;;4996119;28;20581;-67
2022/07/05 11:32:52;;;;;;;2.00;0.83;;;35.30;43.50;;;;;;4996062;28;20971;-67
2022/07/05 11:35:21;;;;;;;2.27;1.10;;;34.90;45.60;;;;;;4996348;28;20461;-67
2022/07/05 11:38:07;;;;;;;1.50;1.07;;;34.80;43.90;;;;;;4996428;28;20461;-70
2022/07/05 11:40:34;;;;;;;1.37;1.27;;;34.60;43.70;;;;;;4995260;28;20481;-67
2022/07/05 11:43:02;;;;;;;1.37;1.10;;;34.20;43.10;;;;;;4996058;28;20504;-67
2022/07/05 11:45:31;;;;;;;1.23;1.13;;;34.00;47.00;;;;;;4995877;28;21067;-68
2022/07/05 11:47:59;;;;;;;1.03;1.03;;;33.40;44.10;;;;;;4995983;28;20503;-67
2022/07/05 11:50:30;;;;;;;1.27;1.03;;;33.40;46.80;;;;;;4996378;28;20481;-66
2022/07/05 11:52:58;;;;;;;1.33;1.20;;;33.30;43.50;;;;;;4996291;28;20457;-68
2022/07/05 11:55:28;;;;;;;1.20;1.10;;;33.30;47.00;;;;;;4996092;28;20948;-68
2022/07/05 11:57:56;;;;;;;1.10;1.00;;;33.40;45.60;;;;;;4995586;28;20481;-67
2022/07/05 12:00:32;;;;;;;1.53;1.43;;;33.20;44.90;;;;;;4995712;28;20457;-66
2022/07/05 12:03:00;;;;;;;1.20;1.20;;;32.70;46.40;;;;;;4995191;28;20438;-68
2022/07/05 12:05:32;;;;;;;1.00;1.00;;;32.20;45.40;;;;;;4995720;28;20505;-68
2022/07/05 12:07:59;;;;;;;1.80;1.03;;;32.20;46.10;;;;;;4995700;28;20485;-68
2022/07/05 12:13:11;;;;;;;1.03;1.03;;;32.10;45.20;;;;;;4997272;28;20421;-68
2022/07/05 12:15:39;;;;;;;2.77;1.20;;;32.10;44.60;;;;;;4995951;28;20449;-69
2022/07/05 12:18:08;;;;;;;0.90;0.90;;;32.20;47.70;;;;;;4996453;28;20462;-68
2022/07/05 12:20:36;;;;;;;1.90;1.30;;;32.10;44.60;;;;;;4995866;28;20470;-68
2022/07/05 12:23:04;;;;;;;1.17;1.07;;;31.90;44.30;;;;;;4996024;28;20937;-68
2022/07/05 12:25:32;;;;;;;1.40;1.30;;;32.00;48.80;;;;;;4995773;28;20488;-68
2022/07/05 12:28:01;;;;;;;2.73;1.10;;;32.10;48.50;;;;;;4996263;28;20822;-68
2022/07/05 12:30:30;;;;;;;2.80;1.30;;;32.20;45.40;;;;;;4995693;28;20460;-69
2022/07/05 12:33:00;;;;;;;2.10;1.50;;;32.00;47.20;;;;;;4995373;28;20477;-68
2022/07/05 12:35:45;;;;;;;1.47;1.10;;;32.00;46.70;;;;;;4996746;28;20458;-69
2022/07/05 12:38:14;;;;;;;1.80;1.43;;;32.20;47.40;;;;;;4995766;28;20438;-68
2022/07/05 12:40:42;;;;;;;1.90;1.53;;;32.10;47.50;;;;;;4995442;28;20480;-68
2022/07/05 12:43:10;;;;;;;2.20;1.13;;;32.30;48.40;;;;;;4996027;28;20458;-69
2022/07/05 12:45:38;;;;;;;3.03;1.50;;;32.30;47.20;;;;;;4995318;28;20484;-68
2022/07/05 12:48:08;;;;;;;1.30;1.10;;;32.20;46.90;;;;;;4995250;28;20464;-68
2022/07/05 12:50:50;;;;;;;1.47;1.37;;;32.20;47.30;;;;;;4995337;28;20495;-68
2022/07/05 12:58:49;;;;;;;3.27;1.10;;;32.20;47.40;;;;;;4994695;28;20525;-68
2022/07/05 13:01:24;;;;;;;2.03;1.27;;;32.30;49.60;;;;;;4994220;28;20488;-67
2022/07/05 13:04:05;;;;;;;4.20;1.10;;;32.30;48.90;;;;;;4995356;28;20492;-67
2022/07/05 13:06:43;;;;;;;2.20;1.30;;;32.50;50.90;;;;;;4995019;28;20524;-67
2022/07/05 13:09:10;;;;;;;2.20;1.17;;;32.50;46.40;;;;;;4994648;28;20476;-68
2022/07/05 13:11:37;;;;;;;1.63;1.53;;;32.20;45.30;;;;;;4994757;28;20831;-68
2022/07/05 13:14:04;;;;;;;4.63;1.20;;;31.90;46.80;;;;;;4996269;28;20449;-68
2022/07/05 13:16:30;;;;;;;2.23;1.50;;;31.80;45.80;;;;;;4998483;28;20446;-68
2022/07/05 13:19:11;;;;;;;1.43;1.33;;;31.70;48.20;;;;;;4998450;28;20485;-68
2022/07/05 13:21:39;;;;;;;1.90;1.07;;;31.70;46.90;;;;;;4998381;28;20492;-67
2022/07/05 13:24:06;;;;;;;2.10;1.53;;;31.80;49.60;;;;;;4998095;28;20963;-68
2022/07/05 13:26:33;;;;;;;2.30;1.23;;;31.80;47.60;;;;;;4999065;28;20535;-68
2022/07/05 13:29:00;;;;;;;2.43;1.50;;;32.00;48.60;;;;;;4999084;28;20464;-68
2022/07/05 13:31:30;;;;;;;1.43;1.13;;;31.90;46.60;;;;;;4999688;28;20477;-68
2022/07/05 13:33:57;;;;;;;1.13;1.13;;;32.00;49.50;;;;;;4998406;28;20453;-68
2022/07/05 13:36:26;;;;;;;4.77;1.33;;;31.90;47.10;;;;;;4998346;28;20460;-68
2022/07/05 13:38:53;;;;;;;1.10;1.10;;;31.80;45.90;;;;;;4998179;28;20453;-68
2022/07/05 13:41:19;;;;;;;1.23;1.13;;;31.80;48.30;;;;;;4997680;28;20988;-67
2022/07/05 13:43:46;;;;;;;4.40;1.00;;;31.70;45.80;;;;;;4998097;28;20469;-68
2022/07/05 13:46:13;;;;;;;1.00;1.00;;;31.40;47.90;;;;;;4998096;28;20477;-68
2022/07/05 13:48:41;;;;;;;1.20;1.10;;;31.50;47.10;;;;;;4997872;28;20453;-68
2022/07/05 13:51:08;;;;;;;3.37;1.20;;;31.50;46.90;;;;;;4997822;28;20469;-67
2022/07/05 13:53:36;;;;;;;2.20;1.63;;;31.40;45.60;;;;;;4998153;28;20460;-67
2022/07/05 13:56:04;;;;;;;1.73;1.20;;;31.10;48.90;;;;;;4997810;28;20493;-67
2022/07/05 13:58:31;;;;;;;1.17;1.17;;;31.20;48.00;;;;;;4998200;28;20453;-66
2022/07/05 14:00:58;;;;;;;2.93;1.57;;;31.20;48.50;;;;;;4997411;28;20892;-66
2022/07/05 14:03:24;;;;;;;1.30;1.20;;;31.20;47.90;;;;;;4998258;28;20960;-67
2022/07/05 14:05:51;;;;;;;1.83;1.50;;;31.10;48.20;;;;;;4997744;28;20477;-66
2022/07/05 14:08:21;;;;;;;1.50;1.40;;;31.00;48.30;;;;;;4997871;28;20504;-68
2022/07/05 14:10:51;;;;;;;1.40;1.30;;;30.70;47.40;;;;;;4997589;28;20481;-67
2022/07/05 14:13:18;;;;;;;1.33;0.93;;;30.70;44.70;;;;;;4997394;28;20445;-66
2022/07/05 14:15:45;;;;;;;2.40;1.20;;;30.70;47.20;;;;;;4997425;28;20461;-66
2022/07/05 14:18:12;;;;;;;2.10;1.13;;;30.60;47.10;;;;;;4997680;28;20848;-66
2022/07/05 14:20:39;;;;;;;4.03;1.23;;;30.40;47.50;;;;;;4996944;28;20479;-66
2022/07/05 14:23:05;;;;;;;2.73;1.20;;;30.50;47.70;;;;;;4997885;28;20859;-66
2022/07/05 14:25:32;;;;;;;1.90;0.97;;;30.40;47.50;;;;;;4996606;28;20474;-67
2022/07/05 14:28:00;;;;;;;5.17;1.50;;;30.20;47.20;;;;;;4997221;28;20462;-67
2022/07/05 14:30:27;;;;;;;1.40;1.30;;;30.30;46.20;;;;;;4997237;28;20454;-66
2022/07/05 14:32:54;;;;;;;1.40;1.30;;;30.50;48.10;;;;;;4997286;28;20802;-67
2022/07/05 14:35:21;;;;;;;1.30;1.20;;;30.60;48.40;;;;;;4996883;28;20964;-67
2022/07/05 14:37:48;;;;;;;1.47;1.30;;;30.60;49.20;;;;;;4997160;28;20457;-66
2022/07/05 14:40:15;;;;;;;4.00;1.33;;;30.70;49.80;;;;;;4997019;28;20454;-66
2022/07/05 14:42:41;;;;;;;3.20;1.40;;;30.80;48.70;;;;;;4996811;28;20464;-67
2022/07/05 14:45:10;;;;;;;1.27;1.17;;;31.00;48.10;;;;;;4997271;28;20543;-66
2022/07/05 14:47:37;;;;;;;9.33;4.13;;;31.10;48.50;;;;;;4997008;28;20454;-67
2022/07/05 14:50:04;;;;;;;1.60;1.50;;;31.10;47.20;;;;;;4997112;28;20453;-68
2022/07/05 14:52:31;;;;;;;2.27;2.10;;;30.90;47.20;;;;;;4996778;28;20473;-67
2022/07/05 14:54:58;;;;;;;7.50;1.57;;;30.90;46.90;;;;;;4996820;28;20577;-66
2022/07/05 14:57:24;;;;;;;2.40;1.27;;;30.80;48.80;;;;;;4996582;28;20454;-67
2022/07/05 14:59:51;;;;;;;1.50;1.40;;;30.90;47.70;;;;;;4997436;28;20540;-67
2022/07/05 15:02:19;;;;;;;2.50;1.33;;;31.00;47.70;;;;;;4996939;28;20526;-67
2022/07/05 15:04:46;;;;;;;1.60;1.60;;;31.00;47.00;;;;;;4996158;28;20843;-67
2022/07/05 15:07:12;;;;;;;1.80;1.57;;;31.00;47.70;;;;;;4996437;28;20453;-67
2022/07/05 15:09:39;;;;;;;3.20;1.40;;;31.00;45.50;;;;;;4996479;28;20457;-67
2022/07/05 15:12:06;;;;;;;1.67;1.40;;;31.00;46.80;;;;;;4995840;28;21003;-67
2022/07/05 15:14:33;;;;;;;1.07;1.07;;;31.00;48.00;;;;;;4996434;28;20457;-67
2022/07/05 15:17:00;;;;;;;1.30;1.30;;;30.90;46.70;;;;;;4996284;28;20450;-66
2022/07/05 15:19:34;;;;;;;2.10;1.63;;;30.80;46.50;;;;;;4996386;28;20458;-67
2022/07/05 15:22:01;;;;;;;1.43;1.27;;;30.80;48.50;;;;;;4996285;28;20473;-67
2022/07/05 15:24:27;;;;;;;1.43;1.30;;;30.90;48.40;;;;;;4996251;28;20453;-67
2022/07/05 15:26:54;;;;;;;3.80;1.43;;;30.90;48.00;;;;;;4995971;28;20478;-67
2022/07/05 15:29:21;;;;;;;2.70;1.20;;;31.00;47.20;;;;;;4996117;28;20454;-67
2022/07/05 15:31:47;;;;;;;2.33;1.53;;;31.10;47.60;;;;;;4996202;28;20474;-67
2022/07/05 15:34:14;;;;;;;2.90;1.53;;;31.00;46.90;;;;;;4996416;28;20508;-68
2022/07/05 15:36:42;;;;;;;2.10;1.10;;;31.00;46.80;;;;;;4995166;28;20937;-68
2022/07/05 15:39:09;;;;;;;2.87;1.30;;;30.80;46.30;;;;;;4995835;28;20464;-67
2022/07/05 15:41:36;;;;;;;1.87;1.20;;;30.90;47.10;;;;;;4996081;28;20532;-67
2022/07/05 15:44:04;;;;;;;1.40;1.30;;;30.80;46.50;;;;;;4995826;28;20454;-66
2022/07/05 15:46:59;;;;;;;3.17;1.30;;;30.80;47.80;;;;;;4995754;28;20478;-67
2022/07/05 15:49:18;;;;;;;1.83;1.20;;;30.80;46.40;;;;;;4995618;28;20544;-68
2022/07/05 15:51:46;;;;;;;1.20;1.20;;;30.70;46.20;;;;;;4996109;28;21056;-66
2022/07/05 15:54:13;;;;;;;1.43;1.20;;;30.70;45.70;;;;;;4996264;28;20457;-67
2022/07/05 15:56:40;;;;;;;1.17;1.10;;;30.70;46.70;;;;;;4995481;28;20454;-67
2022/07/05 15:59:07;;;;;;;1.50;1.40;;;30.70;47.20;;;;;;4995760;28;20462;-66
2022/07/05 16:01:34;;;;;;;2.43;1.00;;;30.60;46.70;;;;;;4996560;28;20485;-68
2022/07/05 16:04:01;;;;;;;2.30;1.43;;;30.60;47.40;;;;;;4996989;28;20458;-67
2022/07/05 16:06:27;;;;;;;1.83;1.40;;;30.40;47.40;;;;;;4996235;28;20482;-68
2022/07/05 16:08:55;;;;;;;5.53;1.47;;;30.40;48.70;;;;;;4995340;28;20878;-67
2022/07/05 16:11:22;;;;;;;2.20;1.30;;;30.40;48.20;;;;;;4995448;28;20477;-67
2022/07/05 16:13:49;;;;;;;1.43;1.33;;;30.30;47.30;;;;;;4995129;28;20460;-67
2022/07/05 16:16:16;;;;;;;1.80;1.50;;;30.20;47.60;;;;;;4994820;28;20450;-68
2022/07/05 16:18:44;;;;;;;1.40;1.30;;;30.20;47.70;;;;;;4995419;28;20462;-67
2022/07/05 16:21:13;;;;;;;1.13;1.13;;;30.20;47.90;;;;;;4994680;28;20473;-66
2022/07/05 16:23:41;;;;;;;2.70;1.30;;;30.20;46.80;;;;;;4994915;28;20481;-67
2022/07/05 16:26:11;;;;;;;3.20;1.47;;;30.00;47.40;;;;;;4995300;28;20504;-67
2022/07/05 16:28:38;;;;;;;1.30;1.20;;;29.90;46.50;;;;;;4994771;28;20454;-66
2022/07/05 16:31:06;;;;;;;1.33;1.23;;;29.80;47.60;;;;;;4994817;28;20504;-66
2022/07/05 16:33:35;;;;;;;1.30;1.20;;;29.80;47.40;;;;;;4994655;28;20953;-67
2022/07/05 16:36:02;;;;;;;2.10;1.17;;;29.80;46.90;;;;;;4994908;28;20465;-67
2022/07/05 16:38:30;;;;;;;1.60;1.50;;;29.90;47.80;;;;;;4994626;28;20460;-67
2022/07/05 16:40:57;;;;;;;4.10;1.30;;;29.90;48.80;;;;;;4994661;28;21044;-66
2022/07/05 16:43:25;;;;;;;3.17;1.17;;;29.90;47.10;;;;;;4994837;28;21085;-67
2022/07/05 16:45:52;;;;;;;3.90;1.43;;;29.90;47.70;;;;;;4994731;28;20540;-67
2022/07/05 16:48:20;;;;;;;1.90;1.40;;;29.70;46.70;;;;;;4996549;28;20453;-67
2022/07/05 16:50:47;;;;;;;1.27;1.17;;;29.60;47.70;;;;;;5001586;28;20560;-67
2022/07/05 16:53:14;;;;;;;1.47;1.40;;;29.50;47.40;;;;;;5001455;28;20577;-67
2022/07/05 16:55:40;;;;;;;1.73;1.17;;;29.40;47.40;;;;;;5001380;28;20460;-67
2022/07/05 16:58:07;;;;;;;2.43;1.10;;;29.30;47.80;;;;;;5001473;28;20453;-68
2022/07/05 17:00:35;;;;;;;1.57;1.10;;;29.20;47.40;;;;;;5001779;28;20462;-67
2022/07/05 17:03:02;;;;;;;1.50;1.40;;;29.00;46.30;;;;;;5001325;28;20442;-67
2022/07/05 17:05:30;;;;;;;2.30;1.40;;;28.90;47.00;;;;;;5001507;28;20460;-67
2022/07/05 17:07:57;;;;;;;1.33;1.23;;;28.80;46.50;;;;;;5001253;28;20480;-67